sensor_id;sensor_type;location;lat;lon;timestamp;P1;durP1;ratioP1;P2;durP2;ratioP2
75189;SDS011;69198;44.694;37.790;2023-04-25T00:00:13;7.75;;;2.47;;
75189;SDS011;69198;44.694;37.790;2023-04-25T00:01:15;7.90;;;2.47;;
75189;SDS011;69198;44.694;37.790;2023-04-25T00:02:16;8.73;;;2.60;;
75189;SDS011;69198;44.694;37.790;2023-04-25T00:03:17;7.70;;;2.47;;
75189;SDS011;69198;44.694;37.790;2023-04-25T00:04:18;7.55;;;2.75;;
75189;SDS011;69198;44.694;37.790;2023-04-25T00:05:22;8.87;;;2.97;;
75189;SDS011;69198;44.694;37.790;2023-04-25T00:06:24;7.97;;;2.75;;
75189;SDS011;69198;44.694;37.790;2023-04-25T00:07:26;8.20;;;2.78;;
75189;SDS011;69198;44.694;37.790;2023-04-25T00:08:31;5.80;;;2.17;;
75189;SDS011;69198;44.694;37.790;2023-04-25T00:09:32;7.80;;;2.72;;
75189;SDS011;69198;44.694;37.790;2023-04-25T00:10:33;7.97;;;2.15;;
75189;SDS011;69198;44.694;37.790;2023-04-25T00:11:34;7.05;;;2.60;;
75189;SDS011;69198;44.694;37.790;2023-04-25T00:12:35;9.18;;;2.83;;
75189;SDS011;69198;44.694;37.790;2023-04-25T00:13:36;7.00;;;2.60;;
75189;SDS011;69198;44.694;37.790;2023-04-25T00:14:37;8.40;;;2.90;;
75189;SDS011;69198;44.694;37.790;2023-04-25T00:15:38;7.22;;;2.80;;
75189;SDS011;69198;44.694;37.790;2023-04-25T00:16:41;8.02;;;2.70;;
75189;SDS011;69198;44.694;37.790;2023-04-25T00:17:44;8.63;;;2.70;;
75189;SDS011;69198;44.694;37.790;2023-04-25T00:18:45;8.98;;;2.80;;
75189;SDS011;69198;44.694;37.790;2023-04-25T00:19:51;8.23;;;2.50;;
75189;SDS011;69198;44.694;37.790;2023-04-25T00:20:52;7.70;;;2.67;;
75189;SDS011;69198;44.694;37.790;2023-04-25T00:21:56;7.72;;;2.80;;
75189;SDS011;69198;44.694;37.790;2023-04-25T00:22:57;7.13;;;2.50;;
75189;SDS011;69198;44.694;37.790;2023-04-25T00:23:58;6.82;;;2.60;;
75189;SDS011;69198;44.694;37.790;2023-04-25T00:25:00;7.65;;;2.80;;
75189;SDS011;69198;44.694;37.790;2023-04-25T00:26:01;9.18;;;2.70;;
75189;SDS011;69198;44.694;37.790;2023-04-25T00:27:02;8.68;;;3.00;;
75189;SDS011;69198;44.694;37.790;2023-04-25T00:28:03;6.70;;;2.63;;
75189;SDS011;69198;44.694;37.790;2023-04-25T00:29:04;7.45;;;2.85;;
75189;SDS011;69198;44.694;37.790;2023-04-25T00:30:06;8.05;;;2.92;;
75189;SDS011;69198;44.694;37.790;2023-04-25T00:31:07;9.47;;;2.70;;
75189;SDS011;69198;44.694;37.790;2023-04-25T00:32:08;7.75;;;2.95;;
75189;SDS011;69198;44.694;37.790;2023-04-25T00:33:10;6.93;;;2.70;;
75189;SDS011;69198;44.694;37.790;2023-04-25T00:34:11;9.25;;;2.72;;
75189;SDS011;69198;44.694;37.790;2023-04-25T00:35:12;9.07;;;2.88;;
75189;SDS011;69198;44.694;37.790;2023-04-25T00:36:13;8.00;;;2.80;;
75189;SDS011;69198;44.694;37.790;2023-04-25T00:37:15;9.38;;;2.70;;
75189;SDS011;69198;44.694;37.790;2023-04-25T00:38:16;8.88;;;3.08;;
75189;SDS011;69198;44.694;37.790;2023-04-25T00:39:17;8.05;;;3.05;;
75189;SDS011;69198;44.694;37.790;2023-04-25T00:40:18;9.70;;;2.80;;
75189;SDS011;69198;44.694;37.790;2023-04-25T00:41:19;9.95;;;2.75;;
75189;SDS011;69198;44.694;37.790;2023-04-25T00:42:20;7.70;;;2.58;;
75189;SDS011;69198;44.694;37.790;2023-04-25T00:43:22;7.28;;;2.65;;
75189;SDS011;69198;44.694;37.790;2023-04-25T00:44:24;7.82;;;2.50;;
75189;SDS011;69198;44.694;37.790;2023-04-25T00:45:28;7.60;;;2.60;;
75189;SDS011;69198;44.694;37.790;2023-04-25T00:46:30;7.70;;;2.72;;
75189;SDS011;69198;44.694;37.790;2023-04-25T00:47:32;9.23;;;3.05;;
75189;SDS011;69198;44.694;37.790;2023-04-25T00:48:33;8.07;;;3.08;;
75189;SDS011;69198;44.694;37.790;2023-04-25T00:49:34;7.78;;;2.42;;
75189;SDS011;69198;44.694;37.790;2023-04-25T00:50:35;9.27;;;3.07;;
75189;SDS011;69198;44.694;37.790;2023-04-25T00:51:37;7.70;;;2.80;;
75189;SDS011;69198;44.694;37.790;2023-04-25T00:52:39;8.57;;;2.60;;
75189;SDS011;69198;44.694;37.790;2023-04-25T00:53:43;9.20;;;2.75;;
75189;SDS011;69198;44.694;37.790;2023-04-25T00:54:45;8.50;;;2.47;;
75189;SDS011;69198;44.694;37.790;2023-04-25T00:55:46;6.75;;;2.33;;
75189;SDS011;69198;44.694;37.790;2023-04-25T00:56:48;8.55;;;2.65;;
75189;SDS011;69198;44.694;37.790;2023-04-25T00:57:49;6.85;;;2.35;;
75189;SDS011;69198;44.694;37.790;2023-04-25T00:58:51;8.48;;;2.90;;
75189;SDS011;69198;44.694;37.790;2023-04-25T00:59:56;9.18;;;2.67;;
75189;SDS011;69198;44.694;37.790;2023-04-25T01:00:59;9.07;;;2.80;;
75189;SDS011;69198;44.694;37.790;2023-04-25T01:02:02;7.95;;;2.53;;
75189;SDS011;69198;44.694;37.790;2023-04-25T01:03:04;6.60;;;2.70;;
75189;SDS011;69198;44.694;37.790;2023-04-25T01:04:05;7.78;;;2.30;;
75189;SDS011;69198;44.694;37.790;2023-04-25T01:05:06;9.38;;;2.50;;
75189;SDS011;69198;44.694;37.790;2023-04-25T01:06:07;9.23;;;2.75;;
75189;SDS011;69198;44.694;37.790;2023-04-25T01:07:11;13.23;;;2.90;;
75189;SDS011;69198;44.694;37.790;2023-04-25T01:08:12;7.20;;;2.22;;
75189;SDS011;69198;44.694;37.790;2023-04-25T01:09:14;9.07;;;2.70;;
75189;SDS011;69198;44.694;37.790;2023-04-25T01:10:15;8.63;;;2.77;;
75189;SDS011;69198;44.694;37.790;2023-04-25T01:11:16;8.45;;;2.63;;
75189;SDS011;69198;44.694;37.790;2023-04-25T01:12:18;6.90;;;2.65;;
75189;SDS011;69198;44.694;37.790;2023-04-25T01:13:19;8.25;;;2.85;;
75189;SDS011;69198;44.694;37.790;2023-04-25T01:14:20;9.55;;;2.80;;
75189;SDS011;69198;44.694;37.790;2023-04-25T01:15:21;8.18;;;2.72;;
75189;SDS011;69198;44.694;37.790;2023-04-25T01:16:23;7.75;;;2.92;;
75189;SDS011;69198;44.694;37.790;2023-04-25T01:17:27;8.93;;;2.83;;
75189;SDS011;69198;44.694;37.790;2023-04-25T01:18:29;8.57;;;2.80;;
75189;SDS011;69198;44.694;37.790;2023-04-25T01:19:30;7.33;;;2.90;;
75189;SDS011;69198;44.694;37.790;2023-04-25T01:20:32;7.68;;;2.60;;
75189;SDS011;69198;44.694;37.790;2023-04-25T01:21:33;8.23;;;2.60;;
75189;SDS011;69198;44.694;37.790;2023-04-25T01:22:35;6.80;;;2.50;;
75189;SDS011;69198;44.694;37.790;2023-04-25T01:23:37;7.18;;;2.35;;
75189;SDS011;69198;44.694;37.790;2023-04-25T01:24:40;7.40;;;2.20;;
75189;SDS011;69198;44.694;37.790;2023-04-25T01:25:42;7.88;;;2.22;;
75189;SDS011;69198;44.694;37.790;2023-04-25T01:26:43;7.35;;;1.90;;
75189;SDS011;69198;44.694;37.790;2023-04-25T01:27:50;7.03;;;1.95;;
75189;SDS011;69198;44.694;37.790;2023-04-25T01:28:52;6.82;;;1.80;;
75189;SDS011;69198;44.694;37.790;2023-04-25T01:29:54;7.20;;;2.10;;
75189;SDS011;69198;44.694;37.790;2023-04-25T01:30:56;6.43;;;2.08;;
75189;SDS011;69198;44.694;37.790;2023-04-25T01:31:58;6.15;;;2.10;;
75189;SDS011;69198;44.694;37.790;2023-04-25T01:32:59;7.68;;;2.20;;
75189;SDS011;69198;44.694;37.790;2023-04-25T01:34:02;6.82;;;2.17;;
75189;SDS011;69198;44.694;37.790;2023-04-25T01:35:04;7.40;;;2.00;;
75189;SDS011;69198;44.694;37.790;2023-04-25T01:36:10;7.55;;;2.63;;
75189;SDS011;69198;44.694;37.790;2023-04-25T01:37:11;8.55;;;2.30;;
75189;SDS011;69198;44.694;37.790;2023-04-25T01:38:13;7.25;;;2.20;;
75189;SDS011;69198;44.694;37.790;2023-04-25T01:39:15;7.82;;;2.42;;
75189;SDS011;69198;44.694;37.790;2023-04-25T01:40:18;8.20;;;2.60;;
75189;SDS011;69198;44.694;37.790;2023-04-25T01:41:22;6.97;;;2.20;;
75189;SDS011;69198;44.694;37.790;2023-04-25T01:42:24;8.65;;;2.38;;
75189;SDS011;69198;44.694;37.790;2023-04-25T01:43:25;8.60;;;2.55;;
75189;SDS011;69198;44.694;37.790;2023-04-25T01:44:27;7.32;;;2.35;;
75189;SDS011;69198;44.694;37.790;2023-04-25T01:45:31;6.43;;;2.30;;
75189;SDS011;69198;44.694;37.790;2023-04-25T01:46:33;6.28;;;2.38;;
75189;SDS011;69198;44.694;37.790;2023-04-25T01:47:34;8.30;;;2.42;;
75189;SDS011;69198;44.694;37.790;2023-04-25T01:48:36;6.90;;;2.25;;
75189;SDS011;69198;44.694;37.790;2023-04-25T01:49:37;8.50;;;2.33;;
75189;SDS011;69198;44.694;37.790;2023-04-25T01:50:40;6.53;;;2.30;;
75189;SDS011;69198;44.694;37.790;2023-04-25T01:51:41;9.05;;;2.60;;
75189;SDS011;69198;44.694;37.790;2023-04-25T01:52:42;7.80;;;2.55;;
75189;SDS011;69198;44.694;37.790;2023-04-25T01:53:43;7.00;;;2.47;;
75189;SDS011;69198;44.694;37.790;2023-04-25T01:54:45;9.57;;;2.55;;
75189;SDS011;69198;44.694;37.790;2023-04-25T01:55:50;10.88;;;3.08;;
75189;SDS011;69198;44.694;37.790;2023-04-25T01:56:54;8.65;;;3.20;;
75189;SDS011;69198;44.694;37.790;2023-04-25T01:57:58;7.57;;;2.67;;
75189;SDS011;69198;44.694;37.790;2023-04-25T01:59:15;10.10;;;3.00;;
75189;SDS011;69198;44.694;37.790;2023-04-25T02:00:34;8.52;;;3.30;;
75189;SDS011;69198;44.694;37.790;2023-04-25T02:01:38;9.40;;;3.30;;
75189;SDS011;69198;44.694;37.790;2023-04-25T02:02:52;11.25;;;3.58;;
75189;SDS011;69198;44.694;37.790;2023-04-25T02:04:01;8.50;;;3.40;;
75189;SDS011;69198;44.694;37.790;2023-04-25T02:05:08;7.90;;;3.13;;
75189;SDS011;69198;44.694;37.790;2023-04-25T02:06:13;9.75;;;3.50;;
75189;SDS011;69198;44.694;37.790;2023-04-25T02:07:17;10.48;;;3.90;;
75189;SDS011;69198;44.694;37.790;2023-04-25T02:08:25;11.18;;;3.90;;
75189;SDS011;69198;44.694;37.790;2023-04-25T02:09:29;12.98;;;4.28;;
75189;SDS011;69198;44.694;37.790;2023-04-25T02:10:31;10.27;;;4.45;;
75189;SDS011;69198;44.694;37.790;2023-04-25T02:11:47;9.15;;;3.70;;
75189;SDS011;69198;44.694;37.790;2023-04-25T02:13:11;11.17;;;4.10;;
75189;SDS011;69198;44.694;37.790;2023-04-25T02:14:34;10.88;;;4.22;;
75189;SDS011;69198;44.694;37.790;2023-04-25T02:15:43;9.93;;;4.25;;
75189;SDS011;69198;44.694;37.790;2023-04-25T02:16:49;11.82;;;4.10;;
75189;SDS011;69198;44.694;37.790;2023-04-25T02:17:51;10.63;;;4.18;;
75189;SDS011;69198;44.694;37.790;2023-04-25T02:18:55;11.98;;;4.80;;
75189;SDS011;69198;44.694;37.790;2023-04-25T02:19:56;10.50;;;4.25;;
75189;SDS011;69198;44.694;37.790;2023-04-25T02:20:58;11.60;;;4.55;;
75189;SDS011;69198;44.694;37.790;2023-04-25T02:22:00;11.02;;;4.28;;
75189;SDS011;69198;44.694;37.790;2023-04-25T02:23:02;10.52;;;4.78;;
75189;SDS011;69198;44.694;37.790;2023-04-25T02:24:03;12.80;;;5.17;;
75189;SDS011;69198;44.694;37.790;2023-04-25T02:25:05;12.07;;;5.18;;
75189;SDS011;69198;44.694;37.790;2023-04-25T02:26:06;11.65;;;4.68;;
75189;SDS011;69198;44.694;37.790;2023-04-25T02:27:07;14.38;;;4.88;;
75189;SDS011;69198;44.694;37.790;2023-04-25T02:28:09;10.15;;;4.63;;
75189;SDS011;69198;44.694;37.790;2023-04-25T02:29:11;13.10;;;4.63;;
75189;SDS011;69198;44.694;37.790;2023-04-25T02:30:12;11.13;;;4.80;;
75189;SDS011;69198;44.694;37.790;2023-04-25T02:31:13;11.15;;;4.60;;
75189;SDS011;69198;44.694;37.790;2023-04-25T02:32:14;10.63;;;4.47;;
75189;SDS011;69198;44.694;37.790;2023-04-25T02:33:15;13.20;;;4.60;;
75189;SDS011;69198;44.694;37.790;2023-04-25T02:34:17;11.73;;;4.85;;
75189;SDS011;69198;44.694;37.790;2023-04-25T02:35:18;12.13;;;4.80;;
75189;SDS011;69198;44.694;37.790;2023-04-25T02:36:20;11.30;;;4.93;;
75189;SDS011;69198;44.694;37.790;2023-04-25T02:37:22;12.82;;;4.90;;
75189;SDS011;69198;44.694;37.790;2023-04-25T02:38:23;13.07;;;4.80;;
75189;SDS011;69198;44.694;37.790;2023-04-25T02:39:24;12.98;;;5.30;;
75189;SDS011;69198;44.694;37.790;2023-04-25T02:40:27;10.52;;;4.60;;
75189;SDS011;69198;44.694;37.790;2023-04-25T02:41:28;11.07;;;4.47;;
75189;SDS011;69198;44.694;37.790;2023-04-25T02:42:30;11.90;;;5.07;;
75189;SDS011;69198;44.694;37.790;2023-04-25T02:43:31;10.20;;;4.35;;
75189;SDS011;69198;44.694;37.790;2023-04-25T02:44:32;12.05;;;4.97;;
75189;SDS011;69198;44.694;37.790;2023-04-25T02:45:33;10.65;;;4.55;;
75189;SDS011;69198;44.694;37.790;2023-04-25T02:46:35;9.25;;;4.63;;
75189;SDS011;69198;44.694;37.790;2023-04-25T02:47:36;9.65;;;4.45;;
75189;SDS011;69198;44.694;37.790;2023-04-25T02:48:37;11.90;;;4.80;;
75189;SDS011;69198;44.694;37.790;2023-04-25T02:49:38;11.82;;;4.75;;
75189;SDS011;69198;44.694;37.790;2023-04-25T02:50:39;11.73;;;4.90;;
75189;SDS011;69198;44.694;37.790;2023-04-25T02:51:40;10.60;;;4.43;;
75189;SDS011;69198;44.694;37.790;2023-04-25T02:52:41;10.43;;;4.75;;
75189;SDS011;69198;44.694;37.790;2023-04-25T02:53:47;11.02;;;5.30;;
75189;SDS011;69198;44.694;37.790;2023-04-25T02:54:48;14.00;;;5.07;;
75189;SDS011;69198;44.694;37.790;2023-04-25T02:55:49;10.93;;;4.28;;
75189;SDS011;69198;44.694;37.790;2023-04-25T02:56:53;8.88;;;3.80;;
75189;SDS011;69198;44.694;37.790;2023-04-25T02:57:59;11.88;;;4.30;;
75189;SDS011;69198;44.694;37.790;2023-04-25T02:59:13;9.27;;;4.10;;
75189;SDS011;69198;44.694;37.790;2023-04-25T03:00:14;11.65;;;4.43;;
75189;SDS011;69198;44.694;37.790;2023-04-25T03:01:15;10.70;;;4.40;;
75189;SDS011;69198;44.694;37.790;2023-04-25T03:02:16;10.13;;;3.90;;
75189;SDS011;69198;44.694;37.790;2023-04-25T03:03:17;11.30;;;4.20;;
75189;SDS011;69198;44.694;37.790;2023-04-25T03:04:22;9.52;;;3.85;;
75189;SDS011;69198;44.694;37.790;2023-04-25T03:05:24;10.63;;;3.55;;
75189;SDS011;69198;44.694;37.790;2023-04-25T03:06:25;9.55;;;3.45;;
75189;SDS011;69198;44.694;37.790;2023-04-25T03:07:26;8.35;;;3.78;;
75189;SDS011;69198;44.694;37.790;2023-04-25T03:08:27;8.30;;;3.47;;
75189;SDS011;69198;44.694;37.790;2023-04-25T03:09:34;9.45;;;3.67;;
75189;SDS011;69198;44.694;37.790;2023-04-25T03:10:35;10.05;;;3.97;;
75189;SDS011;69198;44.694;37.790;2023-04-25T03:11:40;7.97;;;3.70;;
75189;SDS011;69198;44.694;37.790;2023-04-25T03:12:41;9.45;;;3.55;;
75189;SDS011;69198;44.694;37.790;2023-04-25T03:13:42;14.02;;;4.30;;
75189;SDS011;69198;44.694;37.790;2023-04-25T03:14:44;11.73;;;4.15;;
75189;SDS011;69198;44.694;37.790;2023-04-25T03:15:45;12.35;;;4.00;;
75189;SDS011;69198;44.694;37.790;2023-04-25T03:16:46;10.43;;;4.15;;
75189;SDS011;69198;44.694;37.790;2023-04-25T03:17:47;10.65;;;4.10;;
75189;SDS011;69198;44.694;37.790;2023-04-25T03:18:48;12.68;;;4.20;;
75189;SDS011;69198;44.694;37.790;2023-04-25T03:19:51;10.85;;;4.70;;
75189;SDS011;69198;44.694;37.790;2023-04-25T03:20:52;11.27;;;4.30;;
75189;SDS011;69198;44.694;37.790;2023-04-25T03:21:53;12.05;;;4.60;;
75189;SDS011;69198;44.694;37.790;2023-04-25T03:22:54;11.77;;;5.22;;
75189;SDS011;69198;44.694;37.790;2023-04-25T03:23:55;10.70;;;5.03;;
75189;SDS011;69198;44.694;37.790;2023-04-25T03:24:56;13.68;;;5.50;;
75189;SDS011;69198;44.694;37.790;2023-04-25T03:25:57;13.07;;;5.63;;
75189;SDS011;69198;44.694;37.790;2023-04-25T03:26:58;10.52;;;4.60;;
75189;SDS011;69198;44.694;37.790;2023-04-25T03:27:59;12.43;;;5.40;;
75189;SDS011;69198;44.694;37.790;2023-04-25T03:29:00;10.40;;;5.10;;
75189;SDS011;69198;44.694;37.790;2023-04-25T03:30:02;12.63;;;5.50;;
75189;SDS011;69198;44.694;37.790;2023-04-25T03:31:04;11.23;;;5.38;;
75189;SDS011;69198;44.694;37.790;2023-04-25T03:32:05;13.57;;;5.10;;
75189;SDS011;69198;44.694;37.790;2023-04-25T03:33:06;10.77;;;4.70;;
75189;SDS011;69198;44.694;37.790;2023-04-25T03:34:07;10.57;;;5.10;;
75189;SDS011;69198;44.694;37.790;2023-04-25T03:35:08;12.50;;;5.00;;
75189;SDS011;69198;44.694;37.790;2023-04-25T03:36:09;12.25;;;5.15;;
75189;SDS011;69198;44.694;37.790;2023-04-25T03:37:12;10.27;;;4.43;;
75189;SDS011;69198;44.694;37.790;2023-04-25T03:38:14;8.90;;;3.72;;
75189;SDS011;69198;44.694;37.790;2023-04-25T03:39:20;9.90;;;4.50;;
75189;SDS011;69198;44.694;37.790;2023-04-25T03:40:24;9.15;;;3.72;;
75189;SDS011;69198;44.694;37.790;2023-04-25T03:42:01;9.85;;;3.90;;
75189;SDS011;69198;44.694;37.790;2023-04-25T03:43:03;10.45;;;4.00;;
75189;SDS011;69198;44.694;37.790;2023-04-25T03:44:04;9.65;;;3.42;;
75189;SDS011;69198;44.694;37.790;2023-04-25T03:45:07;9.50;;;3.45;;
75189;SDS011;69198;44.694;37.790;2023-04-25T03:46:08;9.80;;;3.53;;
75189;SDS011;69198;44.694;37.790;2023-04-25T03:47:09;9.65;;;3.42;;
75189;SDS011;69198;44.694;37.790;2023-04-25T03:48:11;9.00;;;3.03;;
75189;SDS011;69198;44.694;37.790;2023-04-25T03:49:12;8.55;;;3.13;;
75189;SDS011;69198;44.694;37.790;2023-04-25T03:50:49;10.20;;;3.47;;
75189;SDS011;69198;44.694;37.790;2023-04-25T03:51:50;8.20;;;3.28;;
75189;SDS011;69198;44.694;37.790;2023-04-25T03:52:51;8.00;;;3.00;;
75189;SDS011;69198;44.694;37.790;2023-04-25T03:53:52;10.80;;;3.00;;
75189;SDS011;69198;44.694;37.790;2023-04-25T03:54:53;8.18;;;3.20;;
75189;SDS011;69198;44.694;37.790;2023-04-25T03:55:57;10.10;;;2.88;;
75189;SDS011;69198;44.694;37.790;2023-04-25T03:56:58;10.23;;;2.97;;
75189;SDS011;69198;44.694;37.790;2023-04-25T03:58:02;7.82;;;2.80;;
75189;SDS011;69198;44.694;37.790;2023-04-25T03:59:03;8.80;;;2.70;;
75189;SDS011;69198;44.694;37.790;2023-04-25T04:00:05;8.20;;;2.70;;
75189;SDS011;69198;44.694;37.790;2023-04-25T04:01:13;7.93;;;2.80;;
75189;SDS011;69198;44.694;37.790;2023-04-25T04:02:15;9.95;;;3.08;;
75189;SDS011;69198;44.694;37.790;2023-04-25T04:03:16;8.80;;;3.10;;
75189;SDS011;69198;44.694;37.790;2023-04-25T04:04:17;9.23;;;2.75;;
75189;SDS011;69198;44.694;37.790;2023-04-25T04:05:19;8.93;;;2.97;;
75189;SDS011;69198;44.694;37.790;2023-04-25T04:06:26;9.13;;;2.90;;
75189;SDS011;69198;44.694;37.790;2023-04-25T04:07:35;7.93;;;2.90;;
75189;SDS011;69198;44.694;37.790;2023-04-25T04:08:44;8.02;;;2.78;;
75189;SDS011;69198;44.694;37.790;2023-04-25T04:09:46;8.63;;;2.87;;
75189;SDS011;69198;44.694;37.790;2023-04-25T04:10:52;8.82;;;3.20;;
75189;SDS011;69198;44.694;37.790;2023-04-25T04:11:53;8.90;;;3.20;;
75189;SDS011;69198;44.694;37.790;2023-04-25T04:12:54;8.10;;;3.33;;
75189;SDS011;69198;44.694;37.790;2023-04-25T04:13:55;11.93;;;3.35;;
75189;SDS011;69198;44.694;37.790;2023-04-25T04:14:56;10.00;;;3.38;;
75189;SDS011;69198;44.694;37.790;2023-04-25T04:15:58;10.50;;;3.85;;
75189;SDS011;69198;44.694;37.790;2023-04-25T04:16:59;9.48;;;3.80;;
75189;SDS011;69198;44.694;37.790;2023-04-25T04:18:03;10.55;;;4.50;;
75189;SDS011;69198;44.694;37.790;2023-04-25T04:19:05;9.75;;;4.40;;
75189;SDS011;69198;44.694;37.790;2023-04-25T04:20:07;12.03;;;4.57;;
75189;SDS011;69198;44.694;37.790;2023-04-25T04:21:09;11.15;;;4.45;;
75189;SDS011;69198;44.694;37.790;2023-04-25T04:22:13;12.50;;;4.47;;
75189;SDS011;69198;44.694;37.790;2023-04-25T04:23:15;10.55;;;4.28;;
75189;SDS011;69198;44.694;37.790;2023-04-25T04:24:16;11.85;;;4.60;;
75189;SDS011;69198;44.694;37.790;2023-04-25T04:25:24;11.55;;;4.40;;
75189;SDS011;69198;44.694;37.790;2023-04-25T04:26:49;13.95;;;5.10;;
75189;SDS011;69198;44.694;37.790;2023-04-25T04:28:17;12.23;;;4.57;;
75189;SDS011;69198;44.694;37.790;2023-04-25T04:29:45;10.88;;;4.85;;
75189;SDS011;69198;44.694;37.790;2023-04-25T04:31:04;11.20;;;4.75;;
75189;SDS011;69198;44.694;37.790;2023-04-25T04:32:05;12.50;;;5.67;;
75189;SDS011;69198;44.694;37.790;2023-04-25T04:33:07;13.25;;;5.60;;
75189;SDS011;69198;44.694;37.790;2023-04-25T04:34:09;14.90;;;6.03;;
75189;SDS011;69198;44.694;37.790;2023-04-25T04:35:11;13.75;;;5.90;;
75189;SDS011;69198;44.694;37.790;2023-04-25T04:36:13;12.85;;;6.07;;
75189;SDS011;69198;44.694;37.790;2023-04-25T04:37:14;14.98;;;6.43;;
75189;SDS011;69198;44.694;37.790;2023-04-25T04:38:16;12.75;;;6.32;;
75189;SDS011;69198;44.694;37.790;2023-04-25T04:39:20;17.55;;;6.93;;
75189;SDS011;69198;44.694;37.790;2023-04-25T04:40:39;16.73;;;7.10;;
75189;SDS011;69198;44.694;37.790;2023-04-25T04:42:14;14.95;;;6.55;;
75189;SDS011;69198;44.694;37.790;2023-04-25T04:43:28;16.43;;;7.43;;
75189;SDS011;69198;44.694;37.790;2023-04-25T04:44:50;16.25;;;6.25;;
75189;SDS011;69198;44.694;37.790;2023-04-25T04:46:30;16.20;;;6.70;;
75189;SDS011;69198;44.694;37.790;2023-04-25T04:47:45;16.77;;;6.80;;
75189;SDS011;69198;44.694;37.790;2023-04-25T04:48:58;15.10;;;6.13;;
75189;SDS011;69198;44.694;37.790;2023-04-25T04:50:17;16.67;;;6.07;;
75189;SDS011;69198;44.694;37.790;2023-04-25T04:51:37;16.75;;;6.90;;
75189;SDS011;69198;44.694;37.790;2023-04-25T04:52:47;13.63;;;5.97;;
75189;SDS011;69198;44.694;37.790;2023-04-25T04:54:10;16.10;;;6.20;;
75189;SDS011;69198;44.694;37.790;2023-04-25T04:55:31;14.23;;;6.40;;
75189;SDS011;69198;44.694;37.790;2023-04-25T04:56:44;15.23;;;6.13;;
75189;SDS011;69198;44.694;37.790;2023-04-25T04:58:05;17.42;;;6.82;;
75189;SDS011;69198;44.694;37.790;2023-04-25T04:59:27;15.18;;;6.05;;
75189;SDS011;69198;44.694;37.790;2023-04-25T05:00:55;12.45;;;6.28;;
75189;SDS011;69198;44.694;37.790;2023-04-25T05:02:20;13.82;;;6.00;;
75189;SDS011;69198;44.694;37.790;2023-04-25T05:03:31;13.27;;;6.28;;
75189;SDS011;69198;44.694;37.790;2023-04-25T05:05:01;14.65;;;5.80;;
75189;SDS011;69198;44.694;37.790;2023-04-25T05:06:27;13.20;;;5.70;;
75189;SDS011;69198;44.694;37.790;2023-04-25T05:08:02;13.80;;;5.70;;
75189;SDS011;69198;44.694;37.790;2023-04-25T05:09:26;14.88;;;5.90;;
75189;SDS011;69198;44.694;37.790;2023-04-25T05:10:50;14.23;;;5.50;;
75189;SDS011;69198;44.694;37.790;2023-04-25T05:12:21;13.98;;;5.45;;
75189;SDS011;69198;44.694;37.790;2023-04-25T05:13:36;12.07;;;5.55;;
75189;SDS011;69198;44.694;37.790;2023-04-25T05:14:57;14.07;;;5.78;;
75189;SDS011;69198;44.694;37.790;2023-04-25T05:16:04;14.10;;;5.72;;
75189;SDS011;69198;44.694;37.790;2023-04-25T05:17:20;14.95;;;5.95;;
75189;SDS011;69198;44.694;37.790;2023-04-25T05:18:59;13.68;;;6.18;;
75189;SDS011;69198;44.694;37.790;2023-04-25T05:20:17;13.48;;;6.30;;
75189;SDS011;69198;44.694;37.790;2023-04-25T05:21:24;12.27;;;5.82;;
75189;SDS011;69198;44.694;37.790;2023-04-25T05:22:46;13.10;;;5.72;;
75189;SDS011;69198;44.694;37.790;2023-04-25T05:23:53;12.87;;;6.10;;
75189;SDS011;69198;44.694;37.790;2023-04-25T05:25:17;13.15;;;6.18;;
75189;SDS011;69198;44.694;37.790;2023-04-25T05:26:40;13.27;;;6.15;;
75189;SDS011;69198;44.694;37.790;2023-04-25T05:27:56;14.60;;;6.22;;
75189;SDS011;69198;44.694;37.790;2023-04-25T05:29:17;14.73;;;5.80;;
75189;SDS011;69198;44.694;37.790;2023-04-25T05:30:35;13.38;;;5.85;;
75189;SDS011;69198;44.694;37.790;2023-04-25T05:31:44;15.25;;;6.22;;
75189;SDS011;69198;44.694;37.790;2023-04-25T05:32:48;12.80;;;5.75;;
75189;SDS011;69198;44.694;37.790;2023-04-25T05:33:49;12.85;;;5.63;;
75189;SDS011;69198;44.694;37.790;2023-04-25T05:34:52;13.35;;;6.03;;
75189;SDS011;69198;44.694;37.790;2023-04-25T05:36:00;13.03;;;5.10;;
75189;SDS011;69198;44.694;37.790;2023-04-25T05:37:01;12.30;;;5.30;;
75189;SDS011;69198;44.694;37.790;2023-04-25T05:38:03;12.40;;;5.38;;
75189;SDS011;69198;44.694;37.790;2023-04-25T05:39:36;11.43;;;5.13;;
75189;SDS011;69198;44.694;37.790;2023-04-25T05:40:54;11.15;;;5.20;;
75189;SDS011;69198;44.694;37.790;2023-04-25T05:42:27;12.50;;;5.20;;
75189;SDS011;69198;44.694;37.790;2023-04-25T05:43:39;11.55;;;5.70;;
75189;SDS011;69198;44.694;37.790;2023-04-25T05:45:20;12.38;;;4.95;;
75189;SDS011;69198;44.694;37.790;2023-04-25T05:46:29;11.63;;;5.10;;
75189;SDS011;69198;44.694;37.790;2023-04-25T05:47:47;11.75;;;5.05;;
75189;SDS011;69198;44.694;37.790;2023-04-25T05:48:56;11.93;;;5.43;;
75189;SDS011;69198;44.694;37.790;2023-04-25T05:50:28;12.35;;;5.40;;
75189;SDS011;69198;44.694;37.790;2023-04-25T05:51:35;12.77;;;5.25;;
75189;SDS011;69198;44.694;37.790;2023-04-25T05:52:46;17.17;;;5.53;;
75189;SDS011;69198;44.694;37.790;2023-04-25T05:54:07;12.23;;;5.13;;
75189;SDS011;69198;44.694;37.790;2023-04-25T05:55:09;11.88;;;5.18;;
75189;SDS011;69198;44.694;37.790;2023-04-25T05:56:10;13.15;;;5.55;;
75189;SDS011;69198;44.694;37.790;2023-04-25T05:57:45;15.82;;;5.90;;
75189;SDS011;69198;44.694;37.790;2023-04-25T05:58:47;11.27;;;5.07;;
75189;SDS011;69198;44.694;37.790;2023-04-25T05:59:48;12.70;;;5.00;;
75189;SDS011;69198;44.694;37.790;2023-04-25T06:00:50;10.40;;;4.80;;
75189;SDS011;69198;44.694;37.790;2023-04-25T06:01:52;10.85;;;5.13;;
75189;SDS011;69198;44.694;37.790;2023-04-25T06:02:53;11.80;;;5.47;;
75189;SDS011;69198;44.694;37.790;2023-04-25T06:03:54;12.00;;;5.93;;
75189;SDS011;69198;44.694;37.790;2023-04-25T06:04:55;12.60;;;5.60;;
75189;SDS011;69198;44.694;37.790;2023-04-25T06:05:56;11.15;;;5.28;;
75189;SDS011;69198;44.694;37.790;2023-04-25T06:07:02;12.10;;;5.95;;
75189;SDS011;69198;44.694;37.790;2023-04-25T06:08:09;11.32;;;5.13;;
75189;SDS011;69198;44.694;37.790;2023-04-25T06:09:11;11.82;;;5.40;;
75189;SDS011;69198;44.694;37.790;2023-04-25T06:10:13;12.20;;;5.30;;
75189;SDS011;69198;44.694;37.790;2023-04-25T06:11:14;12.13;;;5.33;;
75189;SDS011;69198;44.694;37.790;2023-04-25T06:12:15;11.23;;;5.38;;
75189;SDS011;69198;44.694;37.790;2023-04-25T06:13:16;12.93;;;5.25;;
75189;SDS011;69198;44.694;37.790;2023-04-25T06:14:17;13.00;;;5.40;;
75189;SDS011;69198;44.694;37.790;2023-04-25T06:15:22;12.32;;;5.30;;
75189;SDS011;69198;44.694;37.790;2023-04-25T06:16:23;10.38;;;4.97;;
75189;SDS011;69198;44.694;37.790;2023-04-25T06:17:26;11.30;;;4.88;;
75189;SDS011;69198;44.694;37.790;2023-04-25T06:18:28;12.02;;;5.18;;
75189;SDS011;69198;44.694;37.790;2023-04-25T06:19:29;14.30;;;5.78;;
75189;SDS011;69198;44.694;37.790;2023-04-25T06:20:30;12.57;;;5.10;;
75189;SDS011;69198;44.694;37.790;2023-04-25T06:21:33;12.70;;;4.80;;
75189;SDS011;69198;44.694;37.790;2023-04-25T06:22:35;13.57;;;5.28;;
75189;SDS011;69198;44.694;37.790;2023-04-25T06:23:36;11.90;;;4.20;;
75189;SDS011;69198;44.694;37.790;2023-04-25T06:24:40;10.00;;;4.40;;
75189;SDS011;69198;44.694;37.790;2023-04-25T06:25:42;9.32;;;4.72;;
75189;SDS011;69198;44.694;37.790;2023-04-25T06:26:43;11.20;;;5.00;;